Overseas Houston — WWAA — position and weather

sailwx.info

Track history (hours):
 
Tides and Currents Weather Stations Pressure Air Temp Water Temp Dewpoint Dewpoint Depression Visibility Wind Speed Wind Dir Waves Ship Positions

Overseas Houston

Owner: ASC Leasing I, Inc., Philadelphia, PA. More information available from US FCC via Universal Licensing System and Coast Guard Vessel Documentation Center.

Last reported at 2015-May-22 15:20 UTC. Time now 2015-May-22 23:46 UTC.
Position N 25°27' W 080°01'.

Type: Tanker. MMSI: 367109000.

Date/timePositionNaut miles runAvg speedWind from/ knotsBaromVisibWave heightAir tempDewpointWater temp
2015-May-22 15:20N 25°27' W 080°01'1012.8
2015-May-22 14:33N 25°37' W 080°01'1313.0
2015-May-22 13:33N 25°50' W 080°01'1313.3
2015-May-22 12:33N 26°03' W 080°03'5 4.7
2015-May-22 11:31N 26°06' W 080°07'0 0.0
2015-May-22 10:31N 26°06' W 080°07'0 0.0
2015-May-22 09:31N 26°06' W 080°07'0 0.0
2015-May-22 08:31N 26°06' W 080°07'0 0.0
2015-May-22 07:31N 26°06' W 080°07'0 0.0
2015-May-22 06:31N 26°06' W 080°07'0 0.0
2015-May-22 05:31N 26°06' W 080°07'0 0.0
2015-May-22 04:31N 26°06' W 080°07'0 0.0
2015-May-22 03:31N 26°06' W 080°07'0 0.0
2015-May-22 02:31N 26°06' W 080°07'0 0.0
2015-May-22 01:31N 26°06' W 080°07'0 0.0
2015-May-22 00:22N 26°06' W 080°07'0 0.0
2015-May-21 23:22N 26°06' W 080°07'0 0.0
2015-May-21 22:25N 26°06' W 080°07'0 0.0
2015-May-21 21:25N 26°06' W 080°07'0 0.0
2015-May-21 20:25N 26°06' W 080°07'0 0.0
2015-May-21 19:25N 26°06' W 080°07'0 0.0
2015-May-21 18:25N 26°06' W 080°07'0 0.0
2015-May-21 17:28N 26°06' W 080°07'0 0.0
2015-May-21 16:28N 26°06' W 080°07'0 0.0
2015-May-21 15:28N 26°06' W 080°07'0 0.0
2015-May-21 14:28N 26°06' W 080°07'0 0.0
2015-May-21 13:28N 26°06' W 080°07'0 0.0
2015-May-21 12:31N 26°06' W 080°07'0 0.0
2015-May-21 11:31N 26°06' W 080°07'0 0.0
2015-May-21 10:31N 26°06' W 080°07'0 0.0
2015-May-21 09:31N 26°06' W 080°07'0 0.0
2015-May-21 08:31N 26°06' W 080°07'0 0.0
2015-May-21 07:31N 26°06' W 080°07'0 0.0
2015-May-21 06:31N 26°06' W 080°07'0 0.0
2015-May-21 05:31N 26°06' W 080°07'0 0.0
2015-May-21 04:31N 26°06' W 080°07'0 0.0
2015-May-21 03:34N 26°06' W 080°07'0 0.0
2015-May-21 02:34N 26°06' W 080°07'0 0.0
2015-May-21 01:33N 26°06' W 080°07'0 0.0
2015-May-21 00:33N 26°06' W 080°07'0 0.0
2015-May-20 23:33N 26°06' W 080°07'0 0.0
2015-May-20 22:33N 26°06' W 080°07'0 0.0
2015-May-20 21:33N 26°06' W 080°07'0 0.0
2015-May-20 20:33N 26°06' W 080°07'0 0.0
2015-May-20 19:33N 26°06' W 080°07'0 0.0
2015-May-20 18:24N 26°06' W 080°07'0 0.0
2015-May-20 17:24N 26°06' W 080°07'0 0.0
2015-May-20 16:32N 26°06' W 080°07'4 3.9
2015-May-20 15:33N 26°07' W 080°04'1 0.9
2015-May-20 14:32N 26°08' W 080°04'0 0.0
2015-May-20 13:32N 26°08' W 080°04'0 0.0
2015-May-20 12:32N 26°08' W 080°04'0 0.0
2015-May-20 11:32N 26°08' W 080°04'0 0.0
2015-May-20 10:32N 26°08' W 080°04'0 0.0
2015-May-20 09:32N 26°08' W 080°04'0 0.0
2015-May-20 08:23N 26°08' W 080°04'0 0.0
2015-May-20 07:23N 26°08' W 080°04'0 0.0
2015-May-20 06:26N 26°08' W 080°04'0 0.0
2015-May-20 05:26N 26°08' W 080°04'0 0.0
2015-May-20 04:26N 26°08' W 080°04'0 0.0
2015-May-20 03:26N 26°08' W 080°04'0 0.0
2015-May-20 02:26N 26°08' W 080°04'0 0.0
2015-May-20 01:26N 26°08' W 080°04'0 0.0
2015-May-20 00:28N 26°08' W 080°04'0 0.0
2015-May-19 23:28N 26°08' W 080°04'0 0.0
2015-May-19 22:28N 26°08' W 080°04'0 0.0
2015-May-19 21:28N 26°08' W 080°04'0 0.0
2015-May-19 20:31N 26°08' W 080°04'0 0.0
2015-May-19 19:31N 26°08' W 080°04'0 0.0
2015-May-19 18:31N 26°08' W 080°04'0 0.0
2015-May-19 17:31N 26°08' W 080°04'0 0.0
2015-May-19 16:31N 26°08' W 080°04'0 0.0
2015-May-19 15:31N 26°08' W 080°04'0 0.0
2015-May-19 14:31N 26°08' W 080°04'0 0.0
2015-May-19 13:31N 26°08' W 080°04'0 0.4
2015-May-19 12:33N 26°08' W 080°04'6 6.4
2015-May-19 11:33N 26°04' W 079°58'1515.1
2015-May-19 10:33N 25°49' W 079°57'  
2015-May-17 05:10N 29°49' W 090°00'710.6
2015-May-17 04:29N 29°54' W 089°54'1111.1
2015-May-17 03:29N 29°54' W 090°07'  
2015-May-14 21:30N 29°55' W 090°07'7 7.4
2015-May-14 20:33N 29°56' W 089°60'7 5.4
2015-May-14 19:11N 29°49' W 090°00'  
Track history (hours):
 
Tides and Currents Weather Stations Pressure Air Temp Water Temp Dewpoint Dewpoint Depression Visibility Wind Speed Wind Dir Waves Ship Positions

Overseas Houston

Owner: ASC Leasing I, Inc., Philadelphia, PA. More information available from US FCC via Universal Licensing System and Coast Guard Vessel Documentation Center.

Last reported at 2015-May-22 15:20 UTC. Time now 2015-May-22 23:46 UTC.
Position N 25°27' W 080°01'.

Type: Tanker. MMSI: 367109000.

Date/timePositionNaut miles runAvg speedWind from/ knotsBaromVisibWave heightAir tempDewpointWater temp
2015-May-22 15:20N 25°27' W 080°01'1012.8
2015-May-22 14:33N 25°37' W 080°01'1313.0
2015-May-22 13:33N 25°50' W 080°01'1313.3
2015-May-22 12:33N 26°03' W 080°03'5 4.7
2015-May-22 11:31N 26°06' W 080°07'0 0.0
2015-May-22 10:31N 26°06' W 080°07'0 0.0
2015-May-22 09:31N 26°06' W 080°07'0 0.0
2015-May-22 08:31N 26°06' W 080°07'0 0.0
2015-May-22 07:31N 26°06' W 080°07'0 0.0
2015-May-22 06:31N 26°06' W 080°07'0 0.0
2015-May-22 05:31N 26°06' W 080°07'0 0.0
2015-May-22 04:31N 26°06' W 080°07'0 0.0
2015-May-22 03:31N 26°06' W 080°07'0 0.0
2015-May-22 02:31N 26°06' W 080°07'0 0.0
2015-May-22 01:31N 26°06' W 080°07'0 0.0
2015-May-22 00:22N 26°06' W 080°07'0 0.0
2015-May-21 23:22N 26°06' W 080°07'0 0.0
2015-May-21 22:25N 26°06' W 080°07'0 0.0
2015-May-21 21:25N 26°06' W 080°07'0 0.0
2015-May-21 20:25N 26°06' W 080°07'0 0.0
2015-May-21 19:25N 26°06' W 080°07'0 0.0
2015-May-21 18:25N 26°06' W 080°07'0 0.0
2015-May-21 17:28N 26°06' W 080°07'0 0.0
2015-May-21 16:28N 26°06' W 080°07'0 0.0
2015-May-21 15:28N 26°06' W 080°07'0 0.0
2015-May-21 14:28N 26°06' W 080°07'0 0.0
2015-May-21 13:28N 26°06' W 080°07'0 0.0
2015-May-21 12:31N 26°06' W 080°07'0 0.0
2015-May-21 11:31N 26°06' W 080°07'0 0.0
2015-May-21 10:31N 26°06' W 080°07'0 0.0
2015-May-21 09:31N 26°06' W 080°07'0 0.0
2015-May-21 08:31N 26°06' W 080°07'0 0.0
2015-May-21 07:31N 26°06' W 080°07'0 0.0
2015-May-21 06:31N 26°06' W 080°07'0 0.0
2015-May-21 05:31N 26°06' W 080°07'0 0.0
2015-May-21 04:31N 26°06' W 080°07'0 0.0
2015-May-21 03:34N 26°06' W 080°07'0 0.0
2015-May-21 02:34N 26°06' W 080°07'0 0.0
2015-May-21 01:33N 26°06' W 080°07'0 0.0
2015-May-21 00:33N 26°06' W 080°07'0 0.0
2015-May-20 23:33N 26°06' W 080°07'0 0.0
2015-May-20 22:33N 26°06' W 080°07'0 0.0
2015-May-20 21:33N 26°06' W 080°07'0 0.0
2015-May-20 20:33N 26°06' W 080°07'0 0.0
2015-May-20 19:33N 26°06' W 080°07'0 0.0
2015-May-20 18:24N 26°06' W 080°07'0 0.0
2015-May-20 17:24N 26°06' W 080°07'0 0.0
2015-May-20 16:32N 26°06' W 080°07'4 3.9
2015-May-20 15:33N 26°07' W 080°04'1 0.9
2015-May-20 14:32N 26°08' W 080°04'0 0.0
2015-May-20 13:32N 26°08' W 080°04'0 0.0
2015-May-20 12:32N 26°08' W 080°04'0 0.0
2015-May-20 11:32N 26°08' W 080°04'0 0.0
2015-May-20 10:32N 26°08' W 080°04'0 0.0
2015-May-20 09:32N 26°08' W 080°04'0 0.0
2015-May-20 08:23N 26°08' W 080°04'0 0.0
2015-May-20 07:23N 26°08' W 080°04'0 0.0
2015-May-20 06:26N 26°08' W 080°04'0 0.0
2015-May-20 05:26N 26°08' W 080°04'0 0.0
2015-May-20 04:26N 26°08' W 080°04'0 0.0
2015-May-20 03:26N 26°08' W 080°04'0 0.0
2015-May-20 02:26N 26°08' W 080°04'0 0.0
2015-May-20 01:26N 26°08' W 080°04'0 0.0
2015-May-20 00:28N 26°08' W 080°04'0 0.0
2015-May-19 23:28N 26°08' W 080°04'0 0.0
2015-May-19 22:28N 26°08' W 080°04'0 0.0
2015-May-19 21:28N 26°08' W 080°04'0 0.0
2015-May-19 20:31N 26°08' W 080°04'0 0.0
2015-May-19 19:31N 26°08' W 080°04'0 0.0
2015-May-19 18:31N 26°08' W 080°04'0 0.0
2015-May-19 17:31N 26°08' W 080°04'0 0.0
2015-May-19 16:31N 26°08' W 080°04'0 0.0
2015-May-19 15:31N 26°08' W 080°04'0 0.0
2015-May-19 14:31N 26°08' W 080°04'0 0.0
2015-May-19 13:31N 26°08' W 080°04'0 0.4
2015-May-19 12:33N 26°08' W 080°04'6 6.4
2015-May-19 11:33N 26°04' W 079°58'1515.1
2015-May-19 10:33N 25°49' W 079°57'  
2015-May-17 05:10N 29°49' W 090°00'710.6
2015-May-17 04:29N 29°54' W 089°54'1111.1
2015-May-17 03:29N 29°54' W 090°07'  
2015-May-14 21:30N 29°55' W 090°07'7 7.4
2015-May-14 20:33N 29°56' W 089°60'7 5.4
2015-May-14 19:11N 29°49' W 090°00'  

Dump ship's entire track history